sensor_id;sensor_type;location;lat;lon;timestamp;temperature;humidity
52073;DHT22;38074;51.232;6.826;2023-10-19T00:04:47;23.00;47.50
52073;DHT22;38074;51.232;6.826;2023-10-19T00:12:04;23.00;47.60
52073;DHT22;38074;51.232;6.826;2023-10-19T00:19:22;23.00;47.60
52073;DHT22;38074;51.232;6.826;2023-10-19T00:26:37;23.00;47.60
52073;DHT22;38074;51.232;6.826;2023-10-19T00:33:55;23.00;47.70
52073;DHT22;38074;51.232;6.826;2023-10-19T00:41:11;23.00;47.70
52073;DHT22;38074;51.232;6.826;2023-10-19T00:48:27;23.00;47.80
52073;DHT22;38074;51.232;6.826;2023-10-19T00:55:44;23.00;47.80
52073;DHT22;38074;51.232;6.826;2023-10-19T01:03:01;23.00;47.90
52073;DHT22;38074;51.232;6.826;2023-10-19T01:10:20;23.00;48.00
52073;DHT22;38074;51.232;6.826;2023-10-19T01:17:37;23.00;48.00
52073;DHT22;38074;51.232;6.826;2023-10-19T01:24:55;23.00;48.00
52073;DHT22;38074;51.232;6.826;2023-10-19T01:32:12;23.00;48.10
52073;DHT22;38074;51.232;6.826;2023-10-19T01:39:34;22.90;48.10
52073;DHT22;38074;51.232;6.826;2023-10-19T01:46:54;23.00;48.20
52073;DHT22;38074;51.232;6.826;2023-10-19T01:54:11;23.00;48.20
52073;DHT22;38074;51.232;6.826;2023-10-19T02:01:26;23.00;48.30
52073;DHT22;38074;51.232;6.826;2023-10-19T02:08:50;23.00;48.30
52073;DHT22;38074;51.232;6.826;2023-10-19T02:16:06;23.00;48.40
52073;DHT22;38074;51.232;6.826;2023-10-19T02:23:22;22.90;48.30
52073;DHT22;38074;51.232;6.826;2023-10-19T02:30:37;22.90;48.50
52073;DHT22;38074;51.232;6.826;2023-10-19T02:37:55;23.00;48.50
52073;DHT22;38074;51.232;6.826;2023-10-19T02:45:11;22.90;48.50
52073;DHT22;38074;51.232;6.826;2023-10-19T02:52:26;22.90;48.50
52073;DHT22;38074;51.232;6.826;2023-10-19T02:59:42;23.00;48.60
52073;DHT22;38074;51.232;6.826;2023-10-19T03:06:58;22.90;48.60
52073;DHT22;38074;51.232;6.826;2023-10-19T03:14:14;23.00;48.80
52073;DHT22;38074;51.232;6.826;2023-10-19T03:21:30;23.00;48.80
52073;DHT22;38074;51.232;6.826;2023-10-19T03:28:52;22.90;48.90
52073;DHT22;38074;51.232;6.826;2023-10-19T03:36:11;22.90;48.90
52073;DHT22;38074;51.232;6.826;2023-10-19T03:43:28;23.00;49.00
52073;DHT22;38074;51.232;6.826;2023-10-19T03:50:45;23.00;49.60
52073;DHT22;38074;51.232;6.826;2023-10-19T03:58:00;23.00;49.10
52073;DHT22;38074;51.232;6.826;2023-10-19T04:05:19;23.00;49.10
52073;DHT22;38074;51.232;6.826;2023-10-19T04:12:41;22.90;49.10
52073;DHT22;38074;51.232;6.826;2023-10-19T04:19:57;22.90;49.30
52073;DHT22;38074;51.232;6.826;2023-10-19T04:27:13;23.00;49.30
52073;DHT22;38074;51.232;6.826;2023-10-19T04:34:28;22.90;49.30
52073;DHT22;38074;51.232;6.826;2023-10-19T04:41:45;23.00;49.40
52073;DHT22;38074;51.232;6.826;2023-10-19T04:49:03;23.00;49.50
52073;DHT22;38074;51.232;6.826;2023-10-19T04:56:19;22.90;49.50
52073;DHT22;38074;51.232;6.826;2023-10-19T05:03:34;23.00;49.50
52073;DHT22;38074;51.232;6.826;2023-10-19T05:10:54;23.00;49.60
52073;DHT22;38074;51.232;6.826;2023-10-19T05:18:09;23.00;49.60
52073;DHT22;38074;51.232;6.826;2023-10-19T05:25:26;23.00;49.80
52073;DHT22;38074;51.232;6.826;2023-10-19T05:32:41;23.00;50.10
52073;DHT22;38074;51.232;6.826;2023-10-19T05:39:57;23.00;50.40
52073;DHT22;38074;51.232;6.826;2023-10-19T05:47:13;23.10;50.60
52073;DHT22;38074;51.232;6.826;2023-10-19T05:54:29;23.00;51.40
52073;DHT22;38074;51.232;6.826;2023-10-19T06:01:45;22.90;51.40
52073;DHT22;38074;51.232;6.826;2023-10-19T06:09:02;23.00;51.60
52073;DHT22;38074;51.232;6.826;2023-10-19T06:16:17;23.00;51.70
52073;DHT22;38074;51.232;6.826;2023-10-19T06:23:33;23.10;51.90
52073;DHT22;38074;51.232;6.826;2023-10-19T06:30:48;23.20;52.00
52073;DHT22;38074;51.232;6.826;2023-10-19T06:38:05;23.20;51.90
52073;DHT22;38074;51.232;6.826;2023-10-19T06:45:22;23.30;52.00
52073;DHT22;38074;51.232;6.826;2023-10-19T06:52:38;23.20;51.90
52073;DHT22;38074;51.232;6.826;2023-10-19T06:59:54;23.20;51.90
52073;DHT22;38074;51.232;6.826;2023-10-19T07:07:09;23.20;51.90
52073;DHT22;38074;51.232;6.826;2023-10-19T07:14:25;23.20;52.00
52073;DHT22;38074;51.232;6.826;2023-10-19T07:21:40;23.20;52.00
52073;DHT22;38074;51.232;6.826;2023-10-19T07:28:58;23.20;52.20
52073;DHT22;38074;51.232;6.826;2023-10-19T07:36:15;23.20;52.30
52073;DHT22;38074;51.232;6.826;2023-10-19T07:43:30;23.30;52.40
52073;DHT22;38074;51.232;6.826;2023-10-19T07:50:46;23.40;52.60
52073;DHT22;38074;51.232;6.826;2023-10-19T07:58:02;23.40;52.70
52073;DHT22;38074;51.232;6.826;2023-10-19T08:05:22;23.40;52.90
52073;DHT22;38074;51.232;6.826;2023-10-19T08:12:38;23.50;53.00
52073;DHT22;38074;51.232;6.826;2023-10-19T08:19:56;23.50;53.20
52073;DHT22;38074;51.232;6.826;2023-10-19T08:27:13;23.60;53.30
52073;DHT22;38074;51.232;6.826;2023-10-19T08:34:28;23.60;53.30
52073;DHT22;38074;51.232;6.826;2023-10-19T08:41:45;23.60;53.40
52073;DHT22;38074;51.232;6.826;2023-10-19T08:49:01;23.60;53.50
52073;DHT22;38074;51.232;6.826;2023-10-19T08:56:17;23.60;53.40
52073;DHT22;38074;51.232;6.826;2023-10-19T09:03:33;23.60;53.40
52073;DHT22;38074;51.232;6.826;2023-10-19T09:10:50;23.60;53.50
52073;DHT22;38074;51.232;6.826;2023-10-19T09:25:34;23.60;53.70
52073;DHT22;38074;51.232;6.826;2023-10-19T09:32:55;23.60;53.80
52073;DHT22;38074;51.232;6.826;2023-10-19T09:40:11;23.70;53.80
52073;DHT22;38074;51.232;6.826;2023-10-19T09:47:30;23.70;53.80
52073;DHT22;38074;51.232;6.826;2023-10-19T09:55:07;23.80;54.00
52073;DHT22;38074;51.232;6.826;2023-10-19T10:02:24;23.80;53.90
52073;DHT22;38074;51.232;6.826;2023-10-19T10:09:40;23.80;53.90
52073;DHT22;38074;51.232;6.826;2023-10-19T10:17:02;23.90;54.10
52073;DHT22;38074;51.232;6.826;2023-10-19T10:24:19;23.90;54.00
52073;DHT22;38074;51.232;6.826;2023-10-19T10:31:41;23.90;53.90
52073;DHT22;38074;51.232;6.826;2023-10-19T10:39:03;24.00;54.10
52073;DHT22;38074;51.232;6.826;2023-10-19T10:46:23;23.90;53.90
52073;DHT22;38074;51.232;6.826;2023-10-19T10:53:40;23.90;53.70
52073;DHT22;38074;51.232;6.826;2023-10-19T11:00:56;23.80;53.60
52073;DHT22;38074;51.232;6.826;2023-10-19T11:08:13;23.80;53.50
52073;DHT22;38074;51.232;6.826;2023-10-19T11:15:30;23.70;53.40
52073;DHT22;38074;51.232;6.826;2023-10-19T11:22:50;23.70;53.40
52073;DHT22;38074;51.232;6.826;2023-10-19T11:30:06;23.70;53.30
52073;DHT22;38074;51.232;6.826;2023-10-19T11:37:22;23.60;53.40
52073;DHT22;38074;51.232;6.826;2023-10-19T11:44:38;23.70;53.60
52073;DHT22;38074;51.232;6.826;2023-10-19T11:51:54;23.70;53.60
52073;DHT22;38074;51.232;6.826;2023-10-19T11:59:10;23.70;53.70
52073;DHT22;38074;51.232;6.826;2023-10-19T12:06:27;23.80;53.90
52073;DHT22;38074;51.232;6.826;2023-10-19T12:13:44;23.80;53.90
52073;DHT22;38074;51.232;6.826;2023-10-19T12:21:00;23.80;53.80
52073;DHT22;38074;51.232;6.826;2023-10-19T12:28:15;23.80;53.80
52073;DHT22;38074;51.232;6.826;2023-10-19T12:35:31;23.80;53.90
52073;DHT22;38074;51.232;6.826;2023-10-19T12:43:06;23.70;54.30
52073;DHT22;38074;51.232;6.826;2023-10-19T12:50:23;23.70;53.70
52073;DHT22;38074;51.232;6.826;2023-10-19T12:57:39;23.60;53.70
52073;DHT22;38074;51.232;6.826;2023-10-19T13:04:55;23.60;53.70
52073;DHT22;38074;51.232;6.826;2023-10-19T13:12:10;23.60;53.70
52073;DHT22;38074;51.232;6.826;2023-10-19T13:19:27;23.50;53.70
52073;DHT22;38074;51.232;6.826;2023-10-19T13:26:43;23.50;53.70
52073;DHT22;38074;51.232;6.826;2023-10-19T13:34:01;23.50;53.70
52073;DHT22;38074;51.232;6.826;2023-10-19T13:41:19;23.50;53.70
52073;DHT22;38074;51.232;6.826;2023-10-19T13:48:34;23.50;53.70
52073;DHT22;38074;51.232;6.826;2023-10-19T13:55:51;23.50;53.80
52073;DHT22;38074;51.232;6.826;2023-10-19T14:03:07;23.50;53.90
52073;DHT22;38074;51.232;6.826;2023-10-19T14:10:23;23.50;53.90
52073;DHT22;38074;51.232;6.826;2023-10-19T14:17:40;23.50;54.40
52073;DHT22;38074;51.232;6.826;2023-10-19T14:24:56;23.50;55.10
52073;DHT22;38074;51.232;6.826;2023-10-19T14:32:11;23.50;55.50
52073;DHT22;38074;51.232;6.826;2023-10-19T14:39:27;23.50;55.90
52073;DHT22;38074;51.232;6.826;2023-10-19T14:46:42;23.50;56.50
52073;DHT22;38074;51.232;6.826;2023-10-19T14:53:58;23.50;56.70
52073;DHT22;38074;51.232;6.826;2023-10-19T15:01:21;23.50;57.30
52073;DHT22;38074;51.232;6.826;2023-10-19T15:08:37;23.50;57.50
52073;DHT22;38074;51.232;6.826;2023-10-19T15:15:53;23.40;57.90
52073;DHT22;38074;51.232;6.826;2023-10-19T15:23:10;23.40;58.20
52073;DHT22;38074;51.232;6.826;2023-10-19T15:30:25;23.50;58.50
52073;DHT22;38074;51.232;6.826;2023-10-19T15:37:43;23.40;58.70
52073;DHT22;38074;51.232;6.826;2023-10-19T15:44:59;23.40;59.00
52073;DHT22;38074;51.232;6.826;2023-10-19T15:52:18;23.40;59.50
52073;DHT22;38074;51.232;6.826;2023-10-19T15:59:37;23.50;59.40
52073;DHT22;38074;51.232;6.826;2023-10-19T16:06:53;23.50;59.20
52073;DHT22;38074;51.232;6.826;2023-10-19T16:14:08;23.50;59.00
52073;DHT22;38074;51.232;6.826;2023-10-19T16:21:25;23.50;58.80
52073;DHT22;38074;51.232;6.826;2023-10-19T16:28:41;23.50;58.70
52073;DHT22;38074;51.232;6.826;2023-10-19T16:35:57;23.20;59.90
52073;DHT22;38074;51.232;6.826;2023-10-19T16:43:12;22.90;60.90
52073;DHT22;38074;51.232;6.826;2023-10-19T16:50:28;23.10;61.00
52073;DHT22;38074;51.232;6.826;2023-10-19T16:57:44;23.20;60.50
52073;DHT22;38074;51.232;6.826;2023-10-19T17:05:00;23.40;60.70
52073;DHT22;38074;51.232;6.826;2023-10-19T17:12:16;23.50;60.70
52073;DHT22;38074;51.232;6.826;2023-10-19T17:19:33;23.60;60.90
52073;DHT22;38074;51.232;6.826;2023-10-19T17:26:48;23.70;61.00
52073;DHT22;38074;51.232;6.826;2023-10-19T17:34:04;23.60;60.80
52073;DHT22;38074;51.232;6.826;2023-10-19T17:41:22;23.70;60.90
52073;DHT22;38074;51.232;6.826;2023-10-19T17:48:39;23.70;60.90
52073;DHT22;38074;51.232;6.826;2023-10-19T17:55:55;23.70;61.00
52073;DHT22;38074;51.232;6.826;2023-10-19T18:03:12;23.80;61.00
52073;DHT22;38074;51.232;6.826;2023-10-19T18:10:29;23.80;61.10
52073;DHT22;38074;51.232;6.826;2023-10-19T18:17:49;23.80;61.10
52073;DHT22;38074;51.232;6.826;2023-10-19T18:25:05;23.80;61.00
52073;DHT22;38074;51.232;6.826;2023-10-19T18:32:23;23.80;61.00
52073;DHT22;38074;51.232;6.826;2023-10-19T18:39:38;23.80;61.10
52073;DHT22;38074;51.232;6.826;2023-10-19T18:46:54;23.80;61.10
52073;DHT22;38074;51.232;6.826;2023-10-19T18:54:09;23.80;61.10
52073;DHT22;38074;51.232;6.826;2023-10-19T19:01:25;23.80;61.10
52073;DHT22;38074;51.232;6.826;2023-10-19T19:08:41;23.80;61.10
52073;DHT22;38074;51.232;6.826;2023-10-19T19:15:57;23.90;61.20
52073;DHT22;38074;51.232;6.826;2023-10-19T19:23:14;23.90;61.10
52073;DHT22;38074;51.232;6.826;2023-10-19T19:30:29;23.90;61.00
52073;DHT22;38074;51.232;6.826;2023-10-19T19:37:45;23.90;61.10
52073;DHT22;38074;51.232;6.826;2023-10-19T19:45:01;23.90;61.00
52073;DHT22;38074;51.232;6.826;2023-10-19T19:52:16;23.90;60.50
52073;DHT22;38074;51.232;6.826;2023-10-19T19:59:32;23.80;59.80
52073;DHT22;38074;51.232;6.826;2023-10-19T20:06:47;23.70;59.40
52073;DHT22;38074;51.232;6.826;2023-10-19T20:14:03;23.70;59.10
52073;DHT22;38074;51.232;6.826;2023-10-19T20:21:18;23.60;58.80
52073;DHT22;38074;51.232;6.826;2023-10-19T20:28:34;23.70;58.70
52073;DHT22;38074;51.232;6.826;2023-10-19T20:35:51;23.70;58.40
52073;DHT22;38074;51.232;6.826;2023-10-19T20:43:08;23.70;58.30
52073;DHT22;38074;51.232;6.826;2023-10-19T20:50:25;23.60;58.10
52073;DHT22;38074;51.232;6.826;2023-10-19T20:57:42;23.60;57.90
52073;DHT22;38074;51.232;6.826;2023-10-19T21:04:59;23.60;57.80
52073;DHT22;38074;51.232;6.826;2023-10-19T21:12:14;23.60;57.70
52073;DHT22;38074;51.232;6.826;2023-10-19T21:19:32;23.60;57.60
52073;DHT22;38074;51.232;6.826;2023-10-19T21:26:48;23.70;57.50
52073;DHT22;38074;51.232;6.826;2023-10-19T21:34:04;23.70;57.40
52073;DHT22;38074;51.232;6.826;2023-10-19T21:41:19;23.70;57.60
52073;DHT22;38074;51.232;6.826;2023-10-19T21:48:36;23.70;58.10
52073;DHT22;38074;51.232;6.826;2023-10-19T21:55:55;23.60;57.40
52073;DHT22;38074;51.232;6.826;2023-10-19T22:03:12;23.50;57.40
52073;DHT22;38074;51.232;6.826;2023-10-19T22:10:27;23.50;57.40
52073;DHT22;38074;51.232;6.826;2023-10-19T22:17:44;23.50;57.40
52073;DHT22;38074;51.232;6.826;2023-10-19T22:25:01;23.40;57.40
52073;DHT22;38074;51.232;6.826;2023-10-19T22:32:19;23.40;57.40
52073;DHT22;38074;51.232;6.826;2023-10-19T22:39:34;23.40;57.40
52073;DHT22;38074;51.232;6.826;2023-10-19T22:46:50;23.40;57.40
52073;DHT22;38074;51.232;6.826;2023-10-19T22:54:06;23.40;57.30
52073;DHT22;38074;51.232;6.826;2023-10-19T23:01:21;23.40;57.30
52073;DHT22;38074;51.232;6.826;2023-10-19T23:08:37;23.30;57.20
52073;DHT22;38074;51.232;6.826;2023-10-19T23:15:55;23.30;57.20
52073;DHT22;38074;51.232;6.826;2023-10-19T23:23:18;23.30;57.80
52073;DHT22;38074;51.232;6.826;2023-10-19T23:30:37;23.30;57.10
52073;DHT22;38074;51.232;6.826;2023-10-19T23:37:55;23.30;57.10
52073;DHT22;38074;51.232;6.826;2023-10-19T23:45:10;23.30;57.10
52073;DHT22;38074;51.232;6.826;2023-10-19T23:52:29;23.30;57.00
52073;DHT22;38074;51.232;6.826;2023-10-19T23:59:44;23.30;57.00
